Terminal Aerodrome Forecast
Issued by NWS Norman, OK

Home | Current Version | Previous Version | Text Only | Print | Product List | Glossary On
Versions: 1 2 3 4 5 6 7 8 9 10 11
000
FTUS44 KOUN 130520
TAFOKC
TAF
KOKC 130520Z 1306/1406 20006KT P6SM SKC
     FM131700 35012KT P6SM SKC=

USA.gov is the U.S. government's official web portal to all federal, state and local government web resources and services.